Time;durP1;ratioP1;P1;durP2;ratioP2;P2;SDS_P1;SDS_P2;PMS_P1;PMS_P2;Temp;Humidity;BMP_temperature;BMP_pressure;BME280_temperature;BME280_humidity;BME280_pressure;Samples;Min_cycle;Max_cycle;Signal;HPM_P1;HPM_P2
2023/11/03 00:01:37;;;;;;;1.25;1.08;;;;;;;;;;5063974;28;20484;-74
2023/11/03 00:04:08;;;;;;;2.73;1.03;;;;;;;;;;5021737;28;20044;-74
2023/11/03 00:06:42;;;;;;;1.33;1.23;;;;;;;;;;5090776;28;20274;-73
2023/11/03 00:09:08;;;;;;;2.35;1.10;;;;;;;;;;5094165;28;20175;-75
2023/11/03 00:11:35;;;;;;;3.13;0.98;;;;;;;;;;5075770;28;20408;-74
2023/11/03 00:14:03;;;;;;;1.77;1.20;;;;;;;;;;5075154;28;20043;-73
2023/11/03 00:16:29;;;;;;;3.22;1.20;;;;;;;;;;5075411;28;20084;-74
2023/11/03 00:18:59;;;;;;;1.50;1.30;;;;;;;;;;5059129;28;20123;-73
2023/11/03 00:21:27;;;;;;;1.38;1.13;;;;;;;;;;5060262;28;20047;-73
2023/11/03 00:23:52;;;;;;;1.40;1.20;;;;;;;;;;5076938;28;20043;-73
2023/11/03 00:26:18;;;;;;;1.55;1.10;;;;;;;;;;5079027;28;20036;-73
2023/11/03 00:28:49;;;;;;;1.40;1.00;;;;;;;;;;5059811;28;20032;-74
2023/11/03 00:31:18;;;;;;;3.00;1.10;;;;;;;;;;5081803;28;20032;-74
2023/11/03 00:33:44;;;;;;;2.38;1.00;;;;;;;;;;5094580;28;20040;-75
2023/11/03 00:36:14;;;;;;;2.33;1.10;;;;;;;;;;5093904;28;20091;-74
2023/11/03 00:38:44;;;;;;;1.77;0.95;;;;;;;;;;5075831;28;20061;-74
2023/11/03 00:41:14;;;;;;;1.33;1.20;;;;;;;;;;5074569;28;20035;-72
2023/11/03 00:43:41;;;;;;;1.17;0.90;;;;;;;;;;5057866;28;20032;-73
2023/11/03 00:46:08;;;;;;;0.88;0.88;;;;;;;;;;5074059;28;20055;-75
2023/11/03 00:48:34;;;;;;;3.45;1.20;;;;;;;;;;5074400;28;20533;-73
2023/11/03 00:50:59;;;;;;;2.55;1.20;;;;;;;;;;5090853;28;20127;-73
2023/11/03 00:53:26;;;;;;;1.20;1.10;;;;;;;;;;5057201;28;20047;-73
2023/11/03 00:55:52;;;;;;;6.93;1.10;;;;;;;;;;5069634;28;20182;-73
2023/11/03 00:58:18;;;;;;;4.85;1.60;;;;;;;;;;5036306;28;20060;-72
2023/11/03 01:00:44;;;;;;;1.40;1.30;;;;;;;;;;5019658;28;20162;-73
2023/11/03 01:03:10;;;;;;;1.80;1.17;;;;;;;;;;5036247;28;20202;-73
2023/11/03 01:05:36;;;;;;;2.00;1.27;;;;;;;;;;5036563;28;20143;-73
2023/11/03 01:08:03;;;;;;;0.90;0.90;;;;;;;;;;5019707;28;20407;-73
2023/11/03 01:10:29;;;;;;;4.95;0.95;;;;;;;;;;5052840;28;20471;-73
2023/11/03 01:12:56;;;;;;;1.80;0.90;;;;;;;;;;5052792;28;20052;-73
2023/11/03 01:15:22;;;;;;;2.28;1.13;;;;;;;;;;5052706;28;20051;-73
2023/11/03 01:17:50;;;;;;;2.05;0.95;;;;;;;;;;5036235;28;20074;-73
2023/11/03 01:20:19;;;;;;;1.48;1.05;;;;;;;;;;5019855;28;20067;-73
2023/11/03 01:22:48;;;;;;;1.20;1.10;;;;;;;;;;5019908;28;20036;-72
2023/11/03 01:25:17;;;;;;;0.90;0.90;;;;;;;;;;5053169;28;20041;-74
2023/11/03 01:27:43;;;;;;;2.70;0.90;;;;;;;;;;5052261;28;20063;-74
2023/11/03 01:30:11;;;;;;;4.03;1.25;;;;;;;;;;5057611;28;20035;-76
2023/11/03 01:32:36;;;;;;;2.10;1.17;;;;;;;;;;5074948;28;20036;-73
2023/11/03 01:35:02;;;;;;;3.05;1.10;;;;;;;;;;5057899;28;20449;-73
2023/11/03 01:37:30;;;;;;;1.20;1.10;;;;;;;;;;5074405;28;20246;-73
2023/11/03 01:39:56;;;;;;;1.55;0.80;;;;;;;;;;5090498;28;20032;-73
2023/11/03 01:42:22;;;;;;;1.27;1.00;;;;;;;;;;5056839;28;20028;-74
2023/11/03 01:44:48;;;;;;;1.20;0.88;;;;;;;;;;5090405;28;20035;-72
2023/11/03 01:47:13;;;;;;;2.40;1.10;;;;;;;;;;5091244;28;20082;-72
2023/11/03 01:49:39;;;;;;;0.88;0.88;;;;;;;;;;5056525;28;20032;-73
2023/11/03 01:52:05;;;;;;;0.90;0.90;;;;;;;;;;5090438;28;20036;-73
2023/11/03 01:54:31;;;;;;;1.20;1.10;;;;;;;;;;5072968;28;20040;-73
2023/11/03 01:56:58;;;;;;;1.25;1.10;;;;;;;;;;5058106;28;20084;-73
2023/11/03 01:59:24;;;;;;;2.55;1.10;;;;;;;;;;5077077;28;20040;-74
2023/11/03 02:01:51;;;;;;;2.22;1.10;;;;;;;;;;5031728;28;20061;-74
2023/11/03 02:04:19;;;;;;;1.00;0.90;;;;;;;;;;5034897;28;20048;-72
2023/11/03 02:06:45;;;;;;;1.05;0.90;;;;;;;;;;5034841;28;20143;-74
2023/11/03 02:09:11;;;;;;;2.83;0.90;;;;;;;;;;5051686;28;20171;-74
2023/11/03 02:11:42;;;;;;;1.23;1.13;;;;;;;;;;5051465;28;20430;-74
2023/11/03 02:14:08;;;;;;;1.20;1.10;;;;;;;;;;4995700;28;20187;-74
2023/11/03 02:16:35;;;;;;;1.25;1.15;;;;;;;;;;4979442;28;20179;-73
2023/11/03 02:19:04;;;;;;;1.23;1.10;;;;;;;;;;4963332;28;20053;-74
2023/11/03 02:21:38;;;;;;;1.30;1.20;;;;;;;;;;4996189;28;20048;-74
2023/11/03 02:24:06;;;;;;;1.83;1.20;;;;;;;;;;4995791;28;20157;-73
2023/11/03 02:26:35;;;;;;;4.57;1.00;;;;;;;;;;5011642;28;20128;-73
2023/11/03 02:29:01;;;;;;;3.35;1.20;;;;;;;;;;4979043;28;20037;-73
2023/11/03 02:31:27;;;;;;;1.30;1.20;;;;;;;;;;4962614;28;20049;-74
2023/11/03 02:33:53;;;;;;;2.35;1.20;;;;;;;;;;5015876;28;20049;-74
2023/11/03 02:36:19;;;;;;;1.85;1.20;;;;;;;;;;5051325;28;20055;-74
2023/11/03 02:38:45;;;;;;;3.47;1.20;;;;;;;;;;5034737;28;20052;-73
2023/11/03 02:41:10;;;;;;;2.17;1.23;;;;;;;;;;5018832;28;20036;-73
2023/11/03 02:43:37;;;;;;;1.95;1.40;;;;;;;;;;5034593;28;20036;-73
2023/11/03 02:46:04;;;;;;;3.10;1.40;;;;;;;;;;4974667;28;1283767;-73
2023/11/03 02:48:29;;;;;;;1.40;1.30;;;;;;;;;;5019870;28;20080;-73
2023/11/03 02:50:55;;;;;;;1.42;1.30;;;;;;;;;;5030942;28;20040;-74
2023/11/03 02:53:21;;;;;;;1.20;1.15;;;;;;;;;;5093584;28;20075;-74
2023/11/03 02:55:46;;;;;;;3.22;1.50;;;;;;;;;;5093324;28;20075;-72
2023/11/03 02:58:12;;;;;;;1.33;1.23;;;;;;;;;;5075979;28;20040;-72
2023/11/03 03:00:38;;;;;;;9.68;1.90;;;;;;;;;;5075656;28;20036;-72
2023/11/03 03:03:04;;;;;;;1.70;1.52;;;;;;;;;;5075512;28;20031;-72
2023/11/03 03:05:30;;;;;;;3.10;1.45;;;;;;;;;;5075724;28;20042;-72
2023/11/03 03:07:55;;;;;;;1.40;1.30;;;;;;;;;;5074598;28;20385;-72
2023/11/03 03:10:21;;;;;;;1.80;1.30;;;;;;;;;;5075636;28;20057;-73
2023/11/03 03:12:47;;;;;;;1.90;1.52;;;;;;;;;;5075412;28;20044;-74
2023/11/03 03:15:13;;;;;;;2.47;1.77;;;;;;;;;;5076394;28;20032;-73
2023/11/03 03:17:38;;;;;;;1.90;1.30;;;;;;;;;;5059350;28;20028;-73
2023/11/03 03:20:05;;;;;;;1.45;1.20;;;;;;;;;;5075590;28;20036;-74
2023/11/03 03:22:31;;;;;;;2.40;1.50;;;;;;;;;;5076192;28;20043;-74
2023/11/03 03:24:56;;;;;;;3.45;1.70;;;;;;;;;;5076195;28;20061;-73
2023/11/03 03:27:22;;;;;;;1.80;1.70;;;;;;;;;;5075833;28;20035;-73
2023/11/03 03:29:48;;;;;;;2.95;1.63;;;;;;;;;;5059110;28;20455;-75
2023/11/03 03:32:13;;;;;;;3.90;1.55;;;;;;;;;;5059525;28;20569;-72
2023/11/03 03:34:39;;;;;;;2.63;1.45;;;;;;;;;;5092030;28;20154;-73
2023/11/03 03:37:05;;;;;;;2.58;1.70;;;;;;;;;;5092189;28;20474;-72
2023/11/03 03:39:31;;;;;;;2.55;1.98;;;;;;;;;;5092007;28;20354;-72
2023/11/03 03:41:56;;;;;;;6.35;2.95;;;;;;;;;;5091744;28;20032;-72
2023/11/03 03:44:22;;;;;;;5.95;1.90;;;;;;;;;;5074948;28;20032;-72
2023/11/03 03:46:48;;;;;;;4.35;1.70;;;;;;;;;;5092026;28;20052;-73
2023/11/03 03:49:14;;;;;;;3.83;1.90;;;;;;;;;;5075748;28;20036;-72
2023/11/03 03:51:39;;;;;;;4.55;1.80;;;;;;;;;;5093734;28;20062;-73
2023/11/03 03:54:05;;;;;;;3.67;1.52;;;;;;;;;;5094507;28;20100;-74
2023/11/03 03:56:31;;;;;;;2.35;1.70;;;;;;;;;;5078649;28;20057;-75
2023/11/03 03:58:57;;;;;;;3.38;2.63;;;;;;;;;;5078205;28;20394;-72
2023/11/03 04:01:23;;;;;;;4.82;3.25;;;;;;;;;;5076793;28;20074;-73
2023/11/03 04:03:49;;;;;;;3.03;2.30;;;;;;;;;;5081791;28;20032;-74
2023/11/03 04:06:14;;;;;;;4.68;1.70;;;;;;;;;;5082031;28;20119;-75
2023/11/03 04:08:40;;;;;;;1.77;1.67;;;;;;;;;;5106425;28;20036;-74
2023/11/03 04:11:06;;;;;;;1.60;1.50;;;;;;;;;;5074747;28;20373;-75
2023/11/03 04:13:32;;;;;;;2.00;1.75;;;;;;;;;;5075221;28;20094;-69
2023/11/03 04:15:58;;;;;;;3.45;1.88;;;;;;;;;;5101449;28;20118;-70
2023/11/03 04:18:24;;;;;;;3.60;1.90;;;;;;;;;;5087090;28;20118;-73
2023/11/03 04:20:50;;;;;;;2.47;1.90;;;;;;;;;;5072966;28;20036;-68
2023/11/03 04:23:22;;;;;;;2.92;1.90;;;;;;;;;;5100157;28;20028;-69
2023/11/03 04:25:57;;;;;;;3.33;2.10;;;;;;;;;;5069717;28;20043;-74
2023/11/03 04:28:23;;;;;;;5.13;1.92;;;;;;;;;;5085587;28;20070;-74
2023/11/03 04:30:50;;;;;;;4.07;2.03;;;;;;;;;;5093653;28;20032;-79
2023/11/03 04:33:17;;;;;;;2.65;1.80;;;;;;;;;;5093690;28;20039;-70
2023/11/03 04:35:42;;;;;;;4.80;1.90;;;;;;;;;;5102491;28;20035;-74
2023/11/03 04:38:09;;;;;;;2.15;1.90;;;;;;;;;;5102251;28;20027;-69
2023/11/03 04:40:35;;;;;;;4.25;3.03;;;;;;;;;;5082618;28;20491;-73
2023/11/03 04:43:01;;;;;;;5.32;2.40;;;;;;;;;;5067452;28;20031;-69
2023/11/03 04:45:27;;;;;;;4.47;1.83;;;;;;;;;;5086604;28;20078;-69
2023/11/03 04:47:54;;;;;;;6.70;1.73;;;;;;;;;;5080541;28;20071;-68
2023/11/03 04:50:20;;;;;;;3.78;2.22;;;;;;;;;;5081706;28;20035;-71
2023/11/03 04:52:45;;;;;;;2.30;1.92;;;;;;;;;;5075493;28;20036;-72
2023/11/03 04:55:11;;;;;;;5.47;3.10;;;;;;;;;;5056261;28;20057;-70
2023/11/03 04:57:37;;;;;;;4.95;1.90;;;;;;;;;;5072504;28;20391;-70
2023/11/03 05:00:05;;;;;;;2.47;1.90;;;;;;;;;;5033964;28;20040;-71
2023/11/03 05:02:34;;;;;;;;;;;;;;;;;;5017310;28;20043;-71
2023/11/03 05:04:59;;;;;;;4.00;1.92;;;;;;;;;;5017345;28;19934;-71
2023/11/03 05:07:25;;;;;;;5.82;1.80;;;;;;;;;;5018596;28;20044;-72
2023/11/03 05:09:51;;;;;;;2.70;2.08;;;;;;;;;;5051454;28;20133;-72
2023/11/03 05:12:17;;;;;;;2.90;2.03;;;;;;;;;;5050257;28;20386;-69
2023/11/03 05:14:42;;;;;;;3.42;2.20;;;;;;;;;;5051201;28;20051;-73
2023/11/03 05:17:08;;;;;;;5.88;1.90;;;;;;;;;;5048763;28;20042;-73
2023/11/03 05:19:35;;;;;;;3.17;1.98;;;;;;;;;;5066263;28;20032;-73
2023/11/03 05:22:01;;;;;;;3.50;1.98;;;;;;;;;;5032973;28;20044;-71
2023/11/03 05:24:27;;;;;;;2.42;2.22;;;;;;;;;;5051103;28;20055;-72
2023/11/03 05:26:53;;;;;;;6.10;2.55;;;;;;;;;;5050657;28;20052;-71
2023/11/03 05:29:22;;;;;;;2.53;2.05;;;;;;;;;;5068569;28;20033;-72
2023/11/03 05:31:51;;;;;;;3.20;2.20;;;;;;;;;;5053661;28;20486;-71
2023/11/03 05:34:17;;;;;;;3.53;2.53;;;;;;;;;;5072620;28;20047;-70
2023/11/03 05:36:42;;;;;;;3.08;2.55;;;;;;;;;;5060126;28;20390;-72
2023/11/03 05:39:12;;;;;;;2.75;2.30;;;;;;;;;;5094391;28;20122;-72
2023/11/03 05:41:37;;;;;;;5.28;2.47;;;;;;;;;;5094206;28;20366;-72
2023/11/03 05:44:03;;;;;;;2.55;2.33;;;;;;;;;;5094143;28;20047;-71
2023/11/03 05:46:29;;;;;;;3.13;2.40;;;;;;;;;;5107330;28;20052;-70
2023/11/03 05:48:54;;;;;;;3.58;2.67;;;;;;;;;;5114756;28;20046;-72
2023/11/03 05:51:21;;;;;;;2.67;2.42;;;;;;;;;;5114825;28;20122;-68
2023/11/03 05:53:48;;;;;;;4.85;2.60;;;;;;;;;;5113908;28;20043;-71
2023/11/03 05:56:14;;;;;;;6.25;3.22;;;;;;;;;;5113692;28;20054;-74
2023/11/03 05:58:39;;;;;;;3.75;2.65;;;;;;;;;;5113967;27;20063;-72
2023/11/03 06:01:05;;;;;;;4.45;2.80;;;;;;;;;;5113063;28;20058;-72
2023/11/03 06:03:31;;;;;;;5.65;3.00;;;;;;;;;;5113143;28;20035;-72
2023/11/03 06:05:56;;;;;;;3.58;2.75;;;;;;;;;;5111873;28;20043;-70
2023/11/03 06:08:22;;;;;;;5.35;3.00;;;;;;;;;;5097739;28;20065;-71
2023/11/03 06:10:50;;;;;;;3.60;2.47;;;;;;;;;;5092410;28;20057;-71
2023/11/03 06:13:16;;;;;;;5.22;2.70;;;;;;;;;;5091834;28;20046;-72
2023/11/03 06:15:42;;;;;;;3.28;2.63;;;;;;;;;;5093269;28;20032;-73
2023/11/03 06:18:11;;;;;;;6.97;2.50;;;;;;;;;;5094567;28;20112;-71
2023/11/03 06:20:37;;;;;;;3.53;2.42;;;;;;;;;;5058282;28;20089;-71
2023/11/03 06:23:02;;;;;;;3.20;2.28;;;;;;;;;;5075160;28;20028;-73
2023/11/03 06:25:31;;;;;;;10.38;2.92;;;;;;;;;;5092064;28;20109;-71
2023/11/03 06:27:57;;;;;;;5.18;2.65;;;;;;;;;;5093063;28;20089;-71
2023/11/03 06:30:23;;;;;;;7.43;2.90;;;;;;;;;;5091888;28;20024;-68
2023/11/03 06:32:50;;;;;;;5.05;2.90;;;;;;;;;;5062337;28;20535;-71
2023/11/03 06:35:15;;;;;;;3.40;2.53;;;;;;;;;;5093071;28;20047;-74
2023/11/03 06:37:41;;;;;;;5.45;2.72;;;;;;;;;;5092998;28;20032;-70
2023/11/03 06:40:10;;;;;;;5.28;2.72;;;;;;;;;;5091579;28;20107;-72
2023/11/03 06:42:38;;;;;;;5.75;2.65;;;;;;;;;;5092725;28;20533;-72
2023/11/03 06:45:04;;;;;;;4.63;2.85;;;;;;;;;;5092338;28;20036;-73
2023/11/03 06:47:30;;;;;;;2.63;2.40;;;;;;;;;;5091756;28;20105;-71
2023/11/03 06:49:56;;;;;;;6.15;2.58;;;;;;;;;;5074541;28;20032;-67
2023/11/03 06:52:22;;;;;;;7.13;2.30;;;;;;;;;;5074900;28;20275;-67
2023/11/03 06:54:52;;;;;;;8.43;2.75;;;;;;;;;;5090447;28;20085;-68
2023/11/03 06:57:18;;;;;;;6.35;2.60;;;;;;;;;;5092703;28;20043;-70
2023/11/03 06:59:44;;;;;;;7.97;2.60;;;;;;;;;;5074564;28;20028;-69
2023/11/03 07:02:12;;;;;;;3.40;2.47;;;;;;;;;;5091277;28;20036;-71
2023/11/03 07:04:40;;;;;;;7.25;2.50;;;;;;;;;;5090744;28;20134;-69
2023/11/03 07:07:06;;;;;;;5.97;2.60;;;;;;;;;;5087143;28;20051;-71
2023/11/03 07:09:31;;;;;;;3.05;2.60;;;;;;;;;;5091557;28;20446;-70
2023/11/03 07:11:57;;;;;;;3.55;2.38;;;;;;;;;;5072827;28;20060;-70
2023/11/03 07:14:25;;;;;;;5.15;2.50;;;;;;;;;;5090857;28;20044;-71
2023/11/03 07:16:52;;;;;;;9.15;3.00;;;;;;;;;;5105324;28;20514;-69
2023/11/03 07:19:21;;;;;;;3.00;2.70;;;;;;;;;;5111147;28;20066;-70
2023/11/03 07:21:50;;;;;;;4.22;2.67;;;;;;;;;;5110354;28;20101;-70
2023/11/03 07:24:19;;;;;;;2.65;2.40;;;;;;;;;;5109240;28;20066;-71
2023/11/03 07:26:44;;;;;;;2.35;2.05;;;;;;;;;;5109542;28;20036;-70
2023/11/03 07:29:11;;;;;;;2.63;2.33;;;;;;;;;;5112324;28;20051;-71
2023/11/03 07:31:38;;;;;;;4.53;2.35;;;;;;;;;;5111252;28;20028;-70
2023/11/03 07:34:04;;;;;;;2.45;2.05;;;;;;;;;;5094099;28;20441;-70
2023/11/03 07:36:30;;;;;;;2.45;2.20;;;;;;;;;;5111184;28;20035;-71
2023/11/03 07:38:58;;;;;;;2.75;2.08;;;;;;;;;;5111168;28;20032;-70
2023/11/03 07:41:23;;;;;;;4.93;2.38;;;;;;;;;;5094288;28;20062;-70
2023/11/03 07:43:49;;;;;;;4.07;2.55;;;;;;;;;;5094268;28;20497;-70
2023/11/03 07:46:15;;;;;;;5.40;2.17;;;;;;;;;;5111567;28;20113;-71
2023/11/03 07:48:41;;;;;;;3.90;2.63;;;;;;;;;;5111832;28;20548;-71
2023/11/03 07:51:06;;;;;;;3.95;2.70;;;;;;;;;;5110877;28;20136;-71
2023/11/03 07:53:34;;;;;;;4.90;2.53;;;;;;;;;;5076863;28;20169;-71
2023/11/03 07:55:59;;;;;;;7.88;2.58;;;;;;;;;;5110191;28;20039;-70
2023/11/03 07:58:26;;;;;;;4.45;2.38;;;;;;;;;;5093591;28;20576;-72
2023/11/03 08:00:52;;;;;;;6.57;2.13;;;;;;;;;;5093403;28;20032;-72
2023/11/03 08:03:18;;;;;;;6.53;2.42;;;;;;;;;;5093738;28;20070;-72
2023/11/03 08:05:44;;;;;;;3.30;2.20;;;;;;;;;;5083575;28;20047;-72
2023/11/03 08:08:16;;;;;;;4.13;2.15;;;;;;;;;;5095744;28;20036;-71
2023/11/03 08:14:41;;;;;;;4.15;2.40;;;;;;;;;;5090761;28;20137;-71
2023/11/03 08:17:08;;;;;;;2.67;2.15;;;;;;;;;;5103302;28;20043;-70
2023/11/03 08:19:34;;;;;;;2.42;2.20;;;;;;;;;;5110964;28;20039;-70
2023/11/03 08:22:00;;;;;;;2.83;2.38;;;;;;;;;;5111508;28;20031;-71
2023/11/03 08:24:26;;;;;;;4.20;2.38;;;;;;;;;;5111432;28;20538;-70
2023/11/03 08:26:51;;;;;;;3.05;2.60;;;;;;;;;;5080553;28;20426;-70
2023/11/03 08:29:18;;;;;;;5.80;2.28;;;;;;;;;;5073295;28;20046;-74
2023/11/03 08:31:45;;;;;;;5.68;2.63;;;;;;;;;;5090089;28;20540;-73
2023/11/03 08:34:12;;;;;;;5.07;2.38;;;;;;;;;;5090901;28;20162;-73
2023/11/03 08:36:38;;;;;;;2.97;2.10;;;;;;;;;;5081947;28;20040;-75
2023/11/03 08:39:06;;;;;;;3.45;2.33;;;;;;;;;;5056514;28;20036;-74
2023/11/03 08:41:32;;;;;;;3.38;2.30;;;;;;;;;;5089695;28;20708;-74
2023/11/03 08:43:58;;;;;;;3.50;2.50;;;;;;;;;;5089263;28;20035;-75
2023/11/03 08:46:24;;;;;;;2.70;2.42;;;;;;;;;;5072587;28;20112;-74
2023/11/03 08:49:17;;;;;;;3.05;2.60;;;;;;;;;;5090733;28;20032;-73
2023/11/03 08:51:43;;;;;;;4.30;2.35;;;;;;;;;;5083422;28;20040;-73
2023/11/03 08:54:11;;;;;;;5.00;2.45;;;;;;;;;;5110771;28;20092;-74
2023/11/03 08:56:39;;;;;;;4.07;2.40;;;;;;;;;;5109753;28;20431;-73
2023/11/03 08:59:04;;;;;;;7.18;2.85;;;;;;;;;;5093206;28;20054;-73
2023/11/03 09:01:30;;;;;;;3.45;2.30;;;;;;;;;;5093215;28;20473;-73
2023/11/03 09:03:56;;;;;;;3.22;2.53;;;;;;;;;;5109096;28;20501;-72
2023/11/03 09:06:22;;;;;;;4.55;2.47;;;;;;;;;;5064155;28;20043;-73
2023/11/03 09:08:48;;;;;;;4.43;2.53;;;;;;;;;;5053402;28;20032;-73
2023/11/03 09:11:15;;;;;;;3.22;2.38;;;;;;;;;;5055336;28;20431;-75
2023/11/03 09:13:53;;;;;;;4.82;2.55;;;;;;;;;;5022039;28;20053;-74
2023/11/03 09:16:20;;;;;;;2.90;2.60;;;;;;;;;;5061767;28;20565;-73
2023/11/03 09:18:48;;;;;;;6.32;2.70;;;;;;;;;;5057769;28;20067;-74
2023/11/03 09:21:14;;;;;;;3.17;2.63;;;;;;;;;;5072042;28;20620;-72
2023/11/03 09:23:41;;;;;;;11.35;2.83;;;;;;;;;;5038949;28;20039;-72
2023/11/03 09:26:07;;;;;;;4.32;2.53;;;;;;;;;;5042761;28;20513;-73
2023/11/03 09:28:34;;;;;;;3.75;2.60;;;;;;;;;;5092035;28;20074;-72
2023/11/03 09:30:59;;;;;;;6.13;3.10;;;;;;;;;;5074336;28;20060;-72
2023/11/03 09:33:25;;;;;;;5.28;2.85;;;;;;;;;;5058132;28;20224;-72
2023/11/03 09:35:51;;;;;;;5.10;2.85;;;;;;;;;;5040202;28;20033;-72
2023/11/03 09:38:19;;;;;;;5.80;2.85;;;;;;;;;;5071830;28;20040;-73
2023/11/03 09:40:45;;;;;;;7.78;2.92;;;;;;;;;;5055404;28;20048;-75
2023/11/03 09:43:11;;;;;;;6.68;3.03;;;;;;;;;;5055082;28;20993;-74
2023/11/03 09:45:38;;;;;;;5.28;2.60;;;;;;;;;;5060585;28;20535;-74
2023/11/03 09:48:05;;;;;;;8.13;3.20;;;;;;;;;;5092341;28;20074;-74
2023/11/03 09:50:31;;;;;;;3.83;3.13;;;;;;;;;;5075973;28;20036;-73
2023/11/03 09:52:59;;;;;;;3.88;3.10;;;;;;;;;;5092529;28;20047;-74
2023/11/03 09:55:26;;;;;;;5.63;3.30;;;;;;;;;;5096792;28;20073;-73
2023/11/03 09:57:57;;;;;;;5.88;3.17;;;;;;;;;;5113727;27;20129;-72
2023/11/03 10:00:23;;;;;;;4.80;3.08;;;;;;;;;;5075726;28;20051;-75
2023/11/03 10:02:49;;;;;;;5.80;3.03;;;;;;;;;;5094290;28;20127;-75
2023/11/03 10:05:16;;;;;;;6.45;2.95;;;;;;;;;;5097172;28;20126;-74
2023/11/03 10:07:52;;;;;;;6.85;2.90;;;;;;;;;;5076171;28;20044;-76
2023/11/03 10:10:18;;;;;;;7.43;3.40;;;;;;;;;;5097157;28;20351;-75
2023/11/03 10:12:44;;;;;;;5.57;3.13;;;;;;;;;;5095096;28;20096;-74
2023/11/03 10:15:12;;;;;;;4.25;3.10;;;;;;;;;;5095906;28;20384;-75
2023/11/03 10:17:42;;;;;;;4.80;2.92;;;;;;;;;;5061846;28;20393;-74
2023/11/03 10:20:11;;;;;;;7.57;3.00;;;;;;;;;;5075464;28;20039;-73
2023/11/03 10:22:42;;;;;;;5.57;2.95;;;;;;;;;;5067600;28;20055;-75
2023/11/03 10:25:08;;;;;;;6.88;3.13;;;;;;;;;;5038232;28;20041;-76
2023/11/03 10:27:38;;;;;;;8.10;3.05;;;;;;;;;;5037677;28;20121;-74
2023/11/03 10:30:05;;;;;;;3.40;2.55;;;;;;;;;;5038436;28;20040;-77
2023/11/03 10:32:32;;;;;;;5.68;3.17;;;;;;;;;;5037585;28;20047;-74
2023/11/03 10:35:00;;;;;;;7.65;3.13;;;;;;;;;;5037007;28;20054;-74
2023/11/03 10:37:27;;;;;;;4.93;2.85;;;;;;;;;;5053310;28;20114;-74
2023/11/03 10:39:54;;;;;;;5.15;3.00;;;;;;;;;;5070601;28;20399;-73
2023/11/03 10:42:20;;;;;;;4.97;2.97;;;;;;;;;;5070645;28;20139;-75
2023/11/03 10:44:46;;;;;;;3.42;2.80;;;;;;;;;;5021105;28;20106;-74
2023/11/03 10:47:16;;;;;;;7.13;2.97;;;;;;;;;;5026916;28;20507;-73
2023/11/03 10:49:43;;;;;;;7.05;2.95;;;;;;;;;;5034086;28;20042;-74
2023/11/03 10:52:21;;;;;;;6.72;3.03;;;;;;;;;;5036709;28;20037;-74
2023/11/03 10:55:04;;;;;;;6.68;3.40;;;;;;;;;;5092466;28;20482;-73
2023/11/03 10:57:32;;;;;;;4.32;3.55;;;;;;;;;;5104530;28;20040;-74
2023/11/03 11:00:10;;;;;;;7.80;3.55;;;;;;;;;;5078621;28;20062;-78
2023/11/03 11:02:49;;;;;;;4.50;3.42;;;;;;;;;;5108816;28;20478;-77
2023/11/03 11:05:26;;;;;;;8.77;3.80;;;;;;;;;;5075665;28;20036;-70
2023/11/03 11:07:54;;;;;;;6.65;3.63;;;;;;;;;;5089368;28;20421;-70
2023/11/03 11:10:36;;;;;;;6.32;3.25;;;;;;;;;;5072972;28;20067;-73
2023/11/03 11:13:04;;;;;;;13.27;3.88;;;;;;;;;;5073400;28;20065;-73
2023/11/03 11:15:30;;;;;;;13.80;3.83;;;;;;;;;;5090833;28;20036;-73
2023/11/03 11:18:25;;;;;;;5.38;3.65;;;;;;;;;;5090964;28;20131;-74
2023/11/03 11:20:53;;;;;;;5.72;3.30;;;;;;;;;;5089083;28;20055;-73
2023/11/03 11:23:22;;;;;;;11.23;3.42;;;;;;;;;;5095158;28;20150;-74
2023/11/03 11:25:50;;;;;;;7.38;3.28;;;;;;;;;;5094684;28;20096;-74
2023/11/03 11:28:32;;;;;;;8.98;3.63;;;;;;;;;;5111343;28;20195;-72
2023/11/03 11:30:58;;;;;;;4.28;2.80;;;;;;;;;;5113025;28;20478;-79
2023/11/03 11:33:29;;;;;;;5.45;3.20;;;;;;;;;;5098246;28;20046;-75
2023/11/03 11:35:55;;;;;;;5.57;2.70;;;;;;;;;;5093000;28;20032;-76
2023/11/03 11:38:21;;;;;;;4.90;2.90;;;;;;;;;;5097126;28;20074;-77
2023/11/03 11:40:47;;;;;;;6.70;2.83;;;;;;;;;;5098973;28;20108;-78
2023/11/03 11:43:13;;;;;;;10.27;2.90;;;;;;;;;;5100179;28;20065;-76
2023/11/03 11:45:43;;;;;;;5.50;3.08;;;;;;;;;;5062266;28;20044;-75
2023/11/03 11:48:16;;;;;;;7.07;3.20;;;;;;;;;;5041085;28;20052;-76
2023/11/03 11:50:43;;;;;;;5.03;3.15;;;;;;;;;;5055499;28;20033;-76
2023/11/03 11:53:11;;;;;;;6.00;3.30;;;;;;;;;;5013394;28;20404;-76
2023/11/03 11:55:37;;;;;;;4.90;2.83;;;;;;;;;;5031639;28;20045;-78
2023/11/03 11:58:18;;;;;;;3.83;2.90;;;;;;;;;;5032634;28;20406;-75
2023/11/03 12:00:45;;;;;;;3.53;2.65;;;;;;;;;;5049663;28;20033;-77
2023/11/03 12:03:11;;;;;;;6.97;2.45;;;;;;;;;;5033406;28;20040;-77
2023/11/03 12:05:41;;;;;;;9.20;2.83;;;;;;;;;;5025943;28;20072;-76
2023/11/03 12:08:09;;;;;;;4.27;3.00;;;;;;;;;;5012415;28;20041;-77
2023/11/03 12:10:38;;;;;;;6.80;3.50;;;;;;;;;;5023403;28;20044;-78
2023/11/03 12:13:15;;;;;;;5.00;2.78;;;;;;;;;;5053716;28;20045;-79
2023/11/03 12:15:42;;;;;;;5.43;2.50;;;;;;;;;;5036058;28;20036;-79
2023/11/03 12:18:20;;;;;;;3.78;2.72;;;;;;;;;;5025290;28;20111;-76
2023/11/03 12:21:02;;;;;;;4.53;2.78;;;;;;;;;;4998413;28;20088;-78
2023/11/03 12:23:29;;;;;;;3.60;2.50;;;;;;;;;;4989438;28;20042;-77
2023/11/03 12:25:58;;;;;;;4.53;3.40;;;;;;;;;;4989351;28;20038;-76
2023/11/03 12:28:30;;;;;;;7.50;3.10;;;;;;;;;;4952096;28;20097;-73
2023/11/03 12:30:57;;;;;;;5.03;3.10;;;;;;;;;;4956576;28;20484;-77
2023/11/03 12:33:46;;;;;;;5.05;3.22;;;;;;;;;;4971506;28;20046;-80
2023/11/03 12:36:14;;;;;;;10.95;3.38;;;;;;;;;;4987829;28;20120;-78
2023/11/03 12:38:44;;;;;;;8.85;3.67;;;;;;;;;;5008797;28;20457;-76
2023/11/03 12:41:13;;;;;;;8.87;3.30;;;;;;;;;;4976592;28;20129;-78
2023/11/03 12:43:48;;;;;;;4.72;3.15;;;;;;;;;;4975699;28;20395;-79
2023/11/03 12:46:14;;;;;;;5.20;3.22;;;;;;;;;;4991823;28;20053;-78
2023/11/03 12:48:39;;;;;;;10.32;3.50;;;;;;;;;;5007533;28;20195;-77
2023/11/03 12:51:09;;;;;;;4.93;2.92;;;;;;;;;;4971013;28;20041;-77
2023/11/03 12:53:46;;;;;;;8.13;3.38;;;;;;;;;;5024243;28;20525;-78
2023/11/03 12:56:12;;;;;;;4.18;3.10;;;;;;;;;;5053520;28;20112;-78
2023/11/03 12:58:39;;;;;;;5.28;2.67;;;;;;;;;;5089765;28;20580;-78
2023/11/03 13:01:09;;;;;;;7.10;3.28;;;;;;;;;;5059181;28;20027;-78
2023/11/03 13:03:41;;;;;;;4.00;2.92;;;;;;;;;;5079888;28;20051;-76
2023/11/03 13:06:07;;;;;;;4.38;2.75;;;;;;;;;;5094991;28;20070;-76
2023/11/03 13:08:33;;;;;;;9.30;3.47;;;;;;;;;;5074665;28;20039;-75
2023/11/03 13:10:59;;;;;;;6.85;2.92;;;;;;;;;;5061523;28;20044;-78
2023/11/03 13:13:28;;;;;;;6.30;3.17;;;;;;;;;;5050160;28;20109;-77
2023/11/03 13:15:54;;;;;;;5.78;3.20;;;;;;;;;;4991364;28;20041;-73
2023/11/03 13:18:23;;;;;;;3.67;2.75;;;;;;;;;;5009445;28;20475;-74
2023/11/03 13:20:52;;;;;;;5.68;3.10;;;;;;;;;;4992764;28;20038;-73
2023/11/03 13:23:21;;;;;;;5.13;3.33;;;;;;;;;;5009595;28;20049;-74
2023/11/03 13:25:49;;;;;;;12.82;3.35;;;;;;;;;;5004461;28;20088;-76
2023/11/03 13:28:15;;;;;;;10.07;3.80;;;;;;;;;;4988872;28;20488;-74
2023/11/03 13:30:44;;;;;;;5.50;2.95;;;;;;;;;;4976163;28;20048;-75
2023/11/03 13:33:11;;;;;;;5.43;3.03;;;;;;;;;;5008471;28;20137;-73
2023/11/03 13:35:40;;;;;;;10.02;3.63;;;;;;;;;;4991738;28;20503;-77
2023/11/03 13:38:06;;;;;;;3.75;3.13;;;;;;;;;;4995805;28;20102;-75
2023/11/03 13:40:34;;;;;;;13.73;3.40;;;;;;;;;;4957651;28;20096;-74
2023/11/03 13:43:05;;;;;;;5.80;3.90;;;;;;;;;;4984983;28;20054;-74
2023/11/03 13:45:31;;;;;;;8.10;3.60;;;;;;;;;;4971453;28;20054;-74
2023/11/03 13:48:07;;;;;;;7.40;3.17;;;;;;;;;;5011684;28;20052;-74
2023/11/03 13:50:35;;;;;;;11.30;3.33;;;;;;;;;;5008106;28;20041;-73
2023/11/03 13:53:03;;;;;;;7.05;3.60;;;;;;;;;;4995579;28;20108;-77
2023/11/03 13:55:31;;;;;;;7.28;4.10;;;;;;;;;;5041036;28;20059;-75
2023/11/03 13:57:59;;;;;;;12.27;4.65;;;;;;;;;;5009143;28;20388;-77
2023/11/03 14:00:26;;;;;;;10.82;4.28;;;;;;;;;;5011328;28;20046;-76
2023/11/03 14:02:53;;;;;;;15.73;4.55;;;;;;;;;;5040682;28;20067;-72
2023/11/03 14:05:19;;;;;;;16.27;5.82;;;;;;;;;;4991241;28;20069;-78
2023/11/03 14:07:44;;;;;;;16.00;4.75;;;;;;;;;;5021999;28;20134;-76
2023/11/03 14:10:13;;;;;;;14.65;5.55;;;;;;;;;;5022781;28;20065;-74
2023/11/03 14:12:41;;;;;;;9.98;4.60;;;;;;;;;;5007052;28;20119;-75
2023/11/03 14:15:10;;;;;;;11.88;5.90;;;;;;;;;;5076088;28;20056;-75
2023/11/03 14:17:37;;;;;;;13.55;4.80;;;;;;;;;;5065410;28;20043;-74
2023/11/03 14:20:04;;;;;;;17.42;4.38;;;;;;;;;;5080140;28;20086;-76
2023/11/03 14:22:31;;;;;;;9.30;4.40;;;;;;;;;;5049499;28;20062;-75
2023/11/03 14:25:03;;;;;;;9.63;4.90;;;;;;;;;;5050644;28;20410;-76
2023/11/03 14:27:56;;;;;;;7.07;4.00;;;;;;;;;;5066053;28;20035;-76
2023/11/03 14:30:26;;;;;;;9.40;4.15;;;;;;;;;;5095470;28;20101;-77
2023/11/03 14:32:53;;;;;;;10.75;4.93;;;;;;;;;;5071267;28;20044;-74
2023/11/03 14:35:20;;;;;;;5.90;4.05;;;;;;;;;;5038300;28;20063;-78
2023/11/03 14:37:48;;;;;;;7.57;3.88;;;;;;;;;;5055294;28;20040;-80
2023/11/03 14:40:14;;;;;;;12.60;4.55;;;;;;;;;;5054567;28;20055;-78
2023/11/03 14:42:39;;;;;;;7.18;4.20;;;;;;;;;;4998847;28;20049;-76
2023/11/03 14:45:05;;;;;;;8.70;3.90;;;;;;;;;;5034399;28;20149;-72
2023/11/03 14:47:36;;;;;;;10.18;4.05;;;;;;;;;;5009862;28;20056;-78
2023/11/03 14:50:03;;;;;;;14.02;4.15;;;;;;;;;;5008675;28;20375;-79